Time;durP1;ratioP1;P1;durP2;ratioP2;P2;SDS_P1;SDS_P2;PMS_P1;PMS_P2;Temp;Humidity;BMP_temperature;BMP_pressure;BME280_temperature;BME280_humidity;BME280_pressure;Samples;Min_cycle;Max_cycle;Signal;HPM_P1;HPM_P2
2022/03/26 00:01:00;;;;;;;21.65;8.52;;;;;;;6.78;48.14;100827.06;4449953;32;34202;-74
2022/03/26 00:03:47;;;;;;;27.30;9.63;;;;;;;6.73;48.27;100828.62;4449971;32;34242;-74
2022/03/26 00:06:33;;;;;;;24.60;10.13;;;;;;;6.08;50.15;100824.06;4438287;32;35902;-74
2022/03/26 00:09:19;;;;;;;25.92;9.90;;;;;;;6.27;49.84;100828.12;4465298;32;34250;-75
2022/03/26 00:12:06;;;;;;;20.08;9.20;;;;;;;6.81;48.49;100835.53;4441624;32;34214;-75
2022/03/26 00:14:52;;;;;;;26.67;10.45;;;;;;;6.56;48.93;100830.63;4454227;32;34341;-75
2022/03/26 00:17:39;;;;;;;22.23;9.63;;;;;;;6.48;48.92;100837.34;4443038;32;34920;-74
2022/03/26 00:20:26;;;;;;;27.08;10.23;;;;;;;5.92;51.23;100850.22;4460418;32;34652;-75
2022/03/26 00:23:12;;;;;;;21.48;10.35;;;;;;;6.19;49.99;100835.91;4463332;32;33754;-75
2022/03/26 00:25:59;;;;;;;19.70;9.45;;;;;;;6.10;50.38;100838.25;4460279;32;35689;-74
2022/03/26 00:28:46;;;;;;;21.87;9.07;;;;;;;6.60;49.00;100837.19;4437410;32;34922;-75
2022/03/26 00:31:33;;;;;;;23.73;9.32;;;;;;;6.73;48.61;100834.09;4439375;32;34586;-74
2022/03/26 00:34:19;;;;;;;21.40;9.00;;;;;;;6.80;48.17;100844.78;4453289;32;35039;-75
2022/03/26 00:37:06;;;;;;;23.00;8.73;;;;;;;6.72;48.26;100823.47;4442841;32;34611;-75
2022/03/26 00:39:51;;;;;;;21.05;8.95;;;;;;;6.75;48.19;100840.09;4461480;32;36008;-74
2022/03/26 00:42:38;;;;;;;18.87;8.82;;;;;;;6.34;49.29;100837.97;4452545;32;34242;-74
2022/03/26 00:45:24;;;;;;;19.52;8.40;;;;;;;6.66;48.60;100829.91;4454165;32;34352;-75
2022/03/26 00:48:11;;;;;;;20.83;7.90;;;;;;;6.20;49.61;100830.19;4453491;32;35544;-74
2022/03/26 00:50:57;;;;;;;22.27;8.98;;;;;;;6.19;49.89;100834.00;4452243;32;34791;-74
2022/03/26 00:53:46;;;;;;;20.70;8.77;;;;;;;6.27;49.72;100836.28;4453921;32;34919;-75
2022/03/26 00:56:32;;;;;;;19.80;9.00;;;;;;;6.06;50.24;100842.53;4453609;32;33872;-75
2022/03/26 00:59:19;;;;;;;19.87;8.70;;;;;;;6.17;50.18;100833.41;4465510;32;34635;-75
2022/03/26 01:02:05;;;;;;;20.75;8.60;;;;;;;6.18;50.46;100831.53;4443049;32;35672;-74
2022/03/26 01:04:53;;;;;;;18.87;8.45;;;;;;;5.95;51.05;100833.41;4465304;32;34707;-74
2022/03/26 01:07:40;;;;;;;18.08;8.10;;;;;;;5.94;50.96;100833.66;4443142;32;34053;-75
2022/03/26 01:10:27;;;;;;;19.23;8.98;;;;;;;5.92;51.10;100824.88;4465760;32;34694;-74
2022/03/26 01:13:14;;;;;;;20.23;9.02;;;;;;;6.11;50.50;100826.25;4453797;32;35947;-74
2022/03/26 01:16:01;;;;;;;20.73;8.95;;;;;;;5.96;51.28;100831.50;4453933;32;33621;-74
2022/03/26 01:18:48;;;;;;;18.83;8.43;;;;;;;5.94;51.44;100833.66;4442660;32;35200;-74
2022/03/26 01:21:35;;;;;;;20.60;8.77;;;;;;;6.24;50.31;100823.19;4465480;32;34177;-75
2022/03/26 01:24:21;;;;;;;22.10;9.15;;;;;;;6.34;50.04;100818.94;4465846;32;33683;-74
2022/03/26 01:27:08;;;;;;;17.70;8.77;;;;;;;6.20;50.06;100819.31;4465321;32;34970;-74
2022/03/26 01:29:54;;;;;;;17.85;8.23;;;;;;;6.18;50.43;100821.47;4465461;32;34462;-75
2022/03/26 01:32:40;;;;;;;16.55;8.73;;;;;;;6.33;50.38;100814.56;4453421;32;36210;-74
2022/03/26 01:35:26;;;;;;;19.95;8.77;;;;;;;5.99;51.30;100814.69;4453440;32;35005;-75
2022/03/26 01:38:13;;;;;;;18.60;8.43;;;;;;;5.26;53.66;100816.56;4452974;32;34328;-74
2022/03/26 01:40:59;;;;;;;21.08;9.02;;;;;;;4.81;54.82;100818.25;4465131;32;35136;-75
2022/03/26 01:43:46;;;;;;;19.35;8.75;;;;;;;5.50;52.97;100817.22;4453103;32;34696;-74
2022/03/26 01:46:49;;;;;;;19.40;9.00;;;;;;;5.48;52.97;100809.31;4465718;32;34832;-75
2022/03/26 01:49:35;;;;;;;21.45;8.68;;;;;;;5.46;53.00;100806.00;4465653;32;34582;-75
2022/03/26 01:52:21;;;;;;;16.02;7.53;;;;;;;5.73;52.76;100805.31;4465562;32;34168;-74
2022/03/26 01:55:08;;;;;;;21.62;8.70;;;;;;;5.56;53.04;100800.72;4465289;32;34716;-75
2022/03/26 01:57:56;;;;;;;23.12;9.32;;;;;;;5.61;52.90;100805.44;4465618;32;35039;-75
2022/03/26 02:00:42;;;;;;;20.60;9.07;;;;;;;5.93;52.17;100810.22;4465254;32;35488;-75
2022/03/26 02:03:28;;;;;;;19.73;9.40;;;;;;;5.89;51.92;100814.50;4465321;32;34280;-75
2022/03/26 02:06:15;;;;;;;18.52;9.48;;;;;;;5.93;51.51;100794.75;4452451;32;34416;-74
2022/03/26 02:09:03;;;;;;;20.55;9.05;;;;;;;5.90;51.09;100799.84;4464917;32;35912;-74
2022/03/26 02:11:49;;;;;;;17.80;6.78;;;;;;;5.79;51.81;100805.12;4453052;32;35162;-74
2022/03/26 02:14:36;;;;;;;17.77;7.40;;;;;;;5.83;51.85;100803.56;4464720;32;34248;-75
2022/03/26 02:17:23;;;;;;;14.65;7.18;;;;;;;5.77;52.18;100796.41;4453397;32;33604;-74
2022/03/26 02:20:11;;;;;;;13.43;6.53;;;;;;;5.83;52.43;100802.72;4465150;32;34596;-75
2022/03/26 02:22:57;;;;;;;15.20;7.28;;;;;;;6.02;52.07;100792.41;4442329;32;35631;-75
2022/03/26 02:25:43;;;;;;;13.93;6.82;;;;;;;5.94;52.19;100799.09;4464728;32;34342;-75
2022/03/26 02:28:30;;;;;;;17.30;6.57;;;;;;;5.98;52.01;100802.97;4453122;32;35336;-75
2022/03/26 02:31:16;;;;;;;14.02;7.30;;;;;;;5.84;52.31;100807.13;4452692;32;34902;-75
2022/03/26 02:34:04;;;;;;;14.63;7.50;;;;;;;5.67;52.79;100801.72;4453305;32;34546;-74
2022/03/26 02:36:54;;;;;;;15.23;7.35;;;;;;;5.75;52.61;100798.56;4464785;32;34148;-74
2022/03/26 02:39:40;;;;;;;15.18;7.70;;;;;;;5.50;53.03;100796.28;4440995;32;34586;-75
2022/03/26 02:42:27;;;;;;;18.05;8.00;;;;;;;5.53;53.26;100800.41;4464480;32;35013;-74
2022/03/26 02:45:13;;;;;;;15.38;7.00;;;;;;;5.57;53.17;100790.66;4465222;32;35554;-75
2022/03/26 02:48:00;;;;;;;15.90;7.65;;;;;;;5.32;54.41;100791.94;4464945;32;35016;-75
2022/03/26 02:50:47;;;;;;;18.75;7.28;;;;;;;5.63;53.51;100801.41;4465082;32;34670;-74
2022/03/26 02:53:33;;;;;;;20.45;7.78;;;;;;;5.49;53.69;100799.25;4452805;32;35939;-74
2022/03/26 02:56:19;;;;;;;19.30;8.35;;;;;;;5.15;55.11;100805.53;4452547;32;34253;-75
2022/03/26 02:59:07;;;;;;;21.85;7.82;;;;;;;5.15;55.14;100799.25;4464815;32;35114;-75
2022/03/26 03:01:54;;;;;;;19.85;7.97;;;;;;;5.64;53.61;100799.50;4464366;32;34909;-75
2022/03/26 03:04:40;;;;;;;15.32;7.80;;;;;;;5.49;53.77;100800.06;4464526;32;34886;-75
2022/03/26 03:07:27;;;;;;;15.68;6.95;;;;;;;5.64;52.85;100799.50;4464249;32;34758;-74
2022/03/26 03:10:15;;;;;;;18.52;8.77;;;;;;;5.31;53.28;100803.88;4452504;32;34131;-74
2022/03/26 03:13:01;;;;;;;14.85;7.30;;;;;;;4.77;55.30;100805.41;4464140;32;34731;-75
2022/03/26 03:15:52;;;;;;;16.12;7.12;;;;;;;4.87;55.38;100802.87;4452074;32;34889;-74
2022/03/26 03:18:38;;;;;;;20.55;9.20;;;;;;;5.06;54.63;100803.44;4455946;32;35734;-74
2022/03/26 03:21:26;;;;;;;15.60;8.02;;;;;;;5.48;53.42;100803.88;4469674;32;34484;-75
2022/03/26 03:24:13;;;;;;;16.87;7.55;;;;;;;5.45;53.48;100803.53;4469772;32;37402;-75
2022/03/26 03:26:58;;;;;;;21.15;7.95;;;;;;;5.61;53.04;100802.72;4469299;32;35027;-74
2022/03/26 03:29:45;;;;;;;19.75;8.07;;;;;;;5.43;53.30;100800.25;4469416;32;34709;-74
2022/03/26 03:32:31;;;;;;;20.33;8.25;;;;;;;4.87;55.17;100803.69;4469141;32;34138;-74
2022/03/26 03:35:18;;;;;;;20.58;8.50;;;;;;;5.25;54.29;100799.44;4457154;32;34636;-75
2022/03/26 03:38:04;;;;;;;17.87;8.02;;;;;;;5.14;54.75;100798.44;4457702;32;34898;-75
2022/03/26 03:40:50;;;;;;;17.45;7.45;;;;;;;5.33;54.24;100800.91;4469374;32;35469;-75
2022/03/26 03:43:36;;;;;;;17.23;7.65;;;;;;;5.43;53.43;100802.97;4457461;32;34701;-74
2022/03/26 03:46:22;;;;;;;16.37;7.70;;;;;;;5.36;53.53;100795.81;4457905;32;34740;-74
2022/03/26 03:49:09;;;;;;;22.92;8.35;;;;;;;5.38;53.18;100796.37;4469622;32;35965;-74
2022/03/26 03:51:55;;;;;;;15.30;7.43;;;;;;;5.11;54.06;100803.53;4446685;32;34562;-75
2022/03/26 03:54:41;;;;;;;14.52;7.25;;;;;;;5.16;54.18;100807.16;4469198;32;34237;-74
2022/03/26 03:57:27;;;;;;;18.87;7.68;;;;;;;5.06;54.58;100795.31;4468359;32;35620;-74
2022/03/26 04:00:15;;;;;;;18.98;7.72;;;;;;;4.78;55.43;100794.31;4469435;32;36010;-75
2022/03/26 04:03:02;;;;;;;15.77;7.18;;;;;;;5.11;55.28;100793.50;4457269;32;34688;-74
2022/03/26 04:05:48;;;;;;;15.48;7.20;;;;;;;5.11;55.10;100793.50;4445832;32;34055;-74
2022/03/26 04:08:34;;;;;;;16.30;6.37;;;;;;;4.58;56.94;100799.34;4469421;32;36193;-74
2022/03/26 04:11:21;;;;;;;14.85;6.05;;;;;;;4.87;56.41;100794.72;4446250;32;34871;-74
2022/03/26 04:14:07;;;;;;;15.73;6.50;;;;;;;4.87;56.34;100787.41;4469144;32;34804;-74
2022/03/26 04:16:54;;;;;;;13.45;6.30;;;;;;;4.45;57.17;100789.59;4455664;32;35191;-74
2022/03/26 04:19:40;;;;;;;21.48;7.50;;;;;;;4.39;57.51;100793.28;4456895;32;35569;-74
2022/03/26 04:22:27;;;;;;;18.02;6.53;;;;;;;4.28;57.85;100787.66;4468768;32;34581;-75
2022/03/26 04:25:13;;;;;;;14.13;6.22;;;;;;;4.48;57.65;100799.97;4468436;32;36906;-74
2022/03/26 04:27:59;;;;;;;14.82;6.40;;;;;;;4.60;57.32;100806.19;4468820;32;34765;-74
2022/03/26 04:30:46;;;;;;;12.23;6.10;;;;;;;4.48;57.47;100797.25;4464714;32;35527;-74
2022/03/26 04:33:33;;;;;;;14.45;5.87;;;;;;;4.49;57.39;100807.88;4465500;32;35339;-75
2022/03/26 04:36:20;;;;;;;13.27;6.03;;;;;;;4.46;57.43;100816.50;4466016;32;34741;-75
2022/03/26 04:39:07;;;;;;;14.32;5.75;;;;;;;4.17;58.64;100815.66;4453611;32;34628;-75
2022/03/26 04:41:53;;;;;;;14.60;5.97;;;;;;;4.24;58.64;100818.22;4453885;32;34662;-74
2022/03/26 04:44:39;;;;;;;14.68;6.60;;;;;;;4.10;59.08;100811.41;4465937;32;35592;-74
2022/03/26 04:47:26;;;;;;;14.25;6.87;;;;;;;4.03;59.49;100819.69;4443178;32;34575;-74
2022/03/26 04:50:12;;;;;;;13.00;6.07;;;;;;;4.08;59.48;100816.28;4465559;32;34708;-75
2022/03/26 04:52:59;;;;;;;15.57;6.40;;;;;;;4.23;59.08;100813.84;4453899;32;34613;-74
2022/03/26 04:55:45;;;;;;;16.20;6.00;;;;;;;4.32;58.78;100811.59;4465559;32;35108;-74
2022/03/26 04:58:32;;;;;;;17.80;6.35;;;;;;;4.40;58.66;100816.63;4465338;32;34661;-75
2022/03/26 05:01:18;;;;;;;18.33;7.07;;;;;;;4.35;59.02;100816.53;4464863;32;34208;-74
2022/03/26 05:04:05;;;;;;;17.70;6.68;;;;;;;4.42;58.79;100814.53;4465918;32;35934;-75
2022/03/26 05:06:51;;;;;;;16.85;6.93;;;;;;;4.47;58.79;100810.00;4465746;32;35638;-75
2022/03/26 05:09:38;;;;;;;14.68;6.57;;;;;;;4.22;59.76;100820.37;4453468;32;34819;-75
2022/03/26 05:12:24;;;;;;;18.73;6.37;;;;;;;4.29;60.00;100818.31;4465634;32;34034;-74
2022/03/26 05:15:12;;;;;;;16.85;7.35;;;;;;;4.42;59.18;100823.47;4465425;32;34680;-74
2022/03/26 05:17:58;;;;;;;15.15;6.72;;;;;;;5.03;57.48;100823.78;4453847;32;35885;-74
2022/03/26 05:20:45;;;;;;;13.75;6.22;;;;;;;5.31;56.09;100833.75;4465676;32;35097;-74
2022/03/26 05:23:31;;;;;;;15.30;7.20;;;;;;;5.27;55.77;100835.34;4453432;32;35039;-75
2022/03/26 05:26:21;;;;;;;14.98;7.50;;;;;;;5.30;55.62;100839.47;4453718;32;34652;-75
2022/03/26 05:29:07;;;;;;;17.05;7.97;;;;;;;5.33;55.74;100842.50;4465273;32;34561;-75
2022/03/26 05:31:54;;;;;;;15.95;7.30;;;;;;;5.53;54.97;100833.03;4465216;32;34641;-74
2022/03/26 05:34:40;;;;;;;17.58;8.05;;;;;;;5.56;54.86;100841.50;4465876;32;34087;-74
2022/03/26 05:37:26;;;;;;;17.12;7.40;;;;;;;5.54;54.75;100835.50;4453308;32;34698;-74
2022/03/26 05:40:16;;;;;;;21.02;9.38;;;;;;;5.62;54.79;100836.97;4452689;32;35883;-74
2022/03/26 05:43:03;;;;;;;26.60;11.18;;;;;;;5.60;54.85;100839.94;4453765;32;35286;-74
2022/03/26 05:45:51;;;;;;;28.95;12.82;;;;;;;5.74;54.56;100837.69;4449185;32;35082;-75
2022/03/26 05:48:37;;;;;;;28.27;13.45;;;;;;;5.80;54.43;100836.69;4465199;32;33545;-74
2022/03/26 05:51:23;;;;;;;21.98;9.43;;;;;;;5.91;54.26;100840.37;4442497;32;34999;-75
2022/03/26 05:54:09;;;;;;;16.73;7.85;;;;;;;6.13;53.80;100831.47;4453578;32;34235;-75
2022/03/26 05:56:56;;;;;;;21.33;9.40;;;;;;;6.28;53.41;100840.63;4452964;32;34103;-75
2022/03/26 05:59:42;;;;;;;21.55;8.65;;;;;;;6.29;53.66;100836.84;4465420;32;34192;-74
2022/03/26 06:02:28;;;;;;;21.67;9.05;;;;;;;6.44;53.22;100838.13;4465713;32;36090;-75
2022/03/26 06:05:16;;;;;;;18.77;8.23;;;;;;;6.52;53.08;100843.94;4464877;32;35793;-74
2022/03/26 06:08:02;;;;;;;16.92;7.70;;;;;;;6.23;53.65;100843.31;4465370;32;35051;-74
2022/03/26 06:10:49;;;;;;;17.70;8.15;;;;;;;6.66;52.76;100840.81;4453373;32;34485;-75
2022/03/26 06:13:35;;;;;;;21.05;7.75;;;;;;;7.13;52.10;100845.66;4452342;32;35908;-75
2022/03/26 06:16:21;;;;;;;18.90;7.57;;;;;;;7.34;50.94;100843.91;4453131;32;34193;-75
2022/03/26 06:19:08;;;;;;;21.58;8.90;;;;;;;7.59;50.00;100838.66;4453308;32;34094;-75
2022/03/26 06:21:54;;;;;;;17.02;7.47;;;;;;;7.81;49.28;100835.81;4453086;32;34675;-74
2022/03/26 06:24:41;;;;;;;19.83;7.78;;;;;;;8.14;48.53;100838.44;4453194;32;34504;-75
2022/03/26 06:27:27;;;;;;;17.40;8.32;;;;;;;8.50;49.10;100839.47;4452261;32;34197;-74
2022/03/26 06:30:14;;;;;;;16.12;7.65;;;;;;;8.66;48.43;100846.63;4452853;32;35175;-75
2022/03/26 06:33:00;;;;;;;20.45;7.72;;;;;;;8.24;48.06;100833.87;4442401;32;34668;-75
2022/03/26 06:35:47;;;;;;;17.77;7.75;;;;;;;7.62;49.37;100842.78;4452758;32;35978;-74
2022/03/26 06:38:39;;;;;;;17.27;7.50;;;;;;;7.58;49.55;100842.47;4464926;32;35494;-75
2022/03/26 06:41:25;;;;;;;17.12;8.40;;;;;;;7.80;49.41;100847.00;4452742;32;33736;-75
2022/03/26 06:44:12;;;;;;;17.12;7.43;;;;;;;7.90;48.59;100849.78;4441937;32;34618;-75
2022/03/26 06:46:58;;;;;;;19.62;8.70;;;;;;;8.03;47.89;100849.31;4453044;32;34959;-75
2022/03/26 06:49:46;;;;;;;26.20;10.23;;;;;;;8.17;47.49;100848.84;4463904;32;35411;-75
2022/03/26 06:52:32;;;;;;;16.58;8.18;;;;;;;8.36;46.56;100847.28;4464296;32;33746;-75
2022/03/26 06:55:24;;;;;;;29.35;10.38;;;;;;;8.60;46.04;100853.16;4464623;32;34740;-75
2022/03/26 06:58:11;;;;;;;19.33;8.85;;;;;;;8.85;46.39;100849.69;4441993;32;35999;-74
2022/03/26 07:01:03;;;;;;;21.52;8.57;;;;;;;9.38;45.13;100853.00;4464840;32;34414;-75
2022/03/26 07:03:49;;;;;;;19.67;9.70;;;;;;;9.47;43.84;100858.75;4452663;32;33905;-75
2022/03/26 07:06:36;;;;;;;22.23;9.00;;;;;;;9.59;43.82;100866.69;4452345;32;34626;-75
2022/03/26 07:09:23;;;;;;;23.58;10.45;;;;;;;9.63;44.69;100868.63;4464882;32;35939;-75
2022/03/26 07:12:10;;;;;;;23.15;10.02;;;;;;;9.71;44.46;100867.25;4453247;32;34533;-75
2022/03/26 07:14:57;;;;;;;29.58;11.23;;;;;;;10.51;42.52;100869.28;4452686;32;34258;-75
2022/03/26 07:17:43;;;;;;;20.73;10.38;;;;;;;10.34;42.87;100867.69;4452726;32;34261;-75
2022/03/26 07:20:30;;;;;;;22.25;10.30;;;;;;;10.66;42.44;100854.66;4451227;32;33843;-74
2022/03/26 07:23:16;;;;;;;19.23;9.70;;;;;;;11.39;40.97;100853.94;4464534;32;34436;-75
2022/03/26 07:26:03;;;;;;;28.87;10.18;;;;;;;11.31;40.50;100860.03;4464194;32;34004;-75
2022/03/26 07:28:50;;;;;;;19.95;9.27;;;;;;;11.09;40.22;100858.53;4452476;32;34647;-75
2022/03/26 07:31:36;;;;;;;18.62;8.85;;;;;;;11.31;39.73;100860.84;4452706;32;34966;-75
2022/03/26 07:34:22;;;;;;;21.48;8.98;;;;;;;11.38;38.98;100849.53;4452642;32;35274;-75
2022/03/26 07:37:09;;;;;;;21.08;8.70;;;;;;;11.47;39.03;100856.06;4452263;32;34131;-75
2022/03/26 07:39:55;;;;;;;20.05;9.45;;;;;;;12.09;37.49;100854.37;4464205;32;34763;-74
2022/03/26 07:42:42;;;;;;;22.15;9.40;;;;;;;12.06;37.13;100854.16;4463173;32;34502;-75
2022/03/26 07:45:28;;;;;;;18.87;9.02;;;;;;;12.14;37.04;100862.56;4463740;32;35265;-75
2022/03/26 07:48:15;;;;;;;20.42;9.77;;;;;;;12.03;36.40;100850.06;4451580;32;33940;-75
2022/03/26 07:51:01;;;;;;;22.62;10.30;;;;;;;12.04;36.66;100854.47;4464288;32;35529;-75
2022/03/26 07:53:47;;;;;;;26.52;12.07;;;;;;;12.13;36.70;100866.44;4463550;32;35031;-75
2022/03/26 07:56:34;;;;;;;25.65;9.90;;;;;;;11.70;36.56;100868.22;4450977;32;34795;-75
2022/03/26 07:59:20;;;;;;;25.90;10.52;;;;;;;11.67;37.37;100863.31;4452370;32;33833;-75
2022/03/26 08:02:06;;;;;;;23.23;10.95;;;;;;;12.20;36.83;100865.25;4463869;32;34681;-74
2022/03/26 08:04:52;;;;;;;23.35;9.80;;;;;;;11.78;36.62;100864.00;4464644;32;34841;-74
2022/03/26 08:07:39;;;;;;;22.70;11.20;;;;;;;12.21;35.92;100856.75;4453819;32;34549;-74
2022/03/26 08:10:26;;;;;;;19.65;10.70;;;;;;;12.40;35.77;100867.78;4444142;32;35144;-73
2022/03/26 08:13:13;;;;;;;21.15;10.43;;;;;;;11.85;37.15;100859.00;4466128;32;34457;-73
2022/03/26 08:15:59;;;;;;;18.62;9.18;;;;;;;12.12;36.47;100859.31;4465716;32;34938;-73
2022/03/26 08:18:46;;;;;;;19.95;9.15;;;;;;;12.58;36.63;100849.72;4465976;32;34694;-73
2022/03/26 08:21:35;;;;;;;19.92;9.68;;;;;;;12.67;35.97;100855.38;4466213;32;33857;-73
2022/03/26 08:24:21;;;;;;;20.85;9.35;;;;;;;12.92;36.16;100849.50;4453395;32;33660;-73
2022/03/26 08:27:08;;;;;;;19.65;9.52;;;;;;;12.98;35.66;100853.81;4465817;32;35906;-72
2022/03/26 08:29:54;;;;;;;20.75;8.93;;;;;;;13.14;35.57;100850.81;4465464;32;34599;-73
2022/03/26 08:32:40;;;;;;;23.17;9.85;;;;;;;13.66;34.68;100852.50;4464595;32;34299;-73
2022/03/26 08:35:34;;;;;;;16.33;8.38;;;;;;;13.90;34.39;100846.00;4453630;32;34191;-73
2022/03/26 08:38:21;;;;;;;18.52;7.32;;;;;;;14.03;33.63;100849.88;4440736;32;34839;-73
2022/03/26 08:41:07;;;;;;;18.27;7.75;;;;;;;14.08;33.45;100858.06;4453264;32;35190;-73
2022/03/26 08:43:54;;;;;;;17.10;7.18;;;;;;;13.73;33.74;100858.41;4464537;32;34178;-73
2022/03/26 08:46:40;;;;;;;17.87;7.82;;;;;;;14.08;33.65;100852.56;4432354;32;35549;-73
2022/03/26 08:49:28;;;;;;;15.73;8.15;;;;;;;14.38;33.79;100863.00;4443180;32;35618;-73
2022/03/26 08:52:17;;;;;;;15.75;9.27;;;;;;;14.02;33.58;100859.28;4451774;32;34260;-72
2022/03/26 08:55:09;;;;;;;18.60;8.68;;;;;;;14.12;33.45;100848.91;4453221;32;33964;-72
2022/03/26 08:57:57;;;;;;;16.85;7.50;;;;;;;14.40;33.37;100860.75;4443179;32;34538;-73
2022/03/26 09:00:47;;;;;;;18.45;9.00;;;;;;;14.20;32.91;100850.09;4441528;32;35024;-73
2022/03/26 09:03:40;;;;;;;16.55;8.50;;;;;;;14.23;33.45;100860.53;4442919;32;35446;-73
2022/03/26 09:06:30;;;;;;;18.25;8.70;;;;;;;14.85;32.48;100854.56;4454458;32;35156;-73
2022/03/26 09:09:16;;;;;;;16.87;8.05;;;;;;;14.49;33.20;100851.75;4449840;32;159254;-73
2022/03/26 09:12:03;;;;;;;18.67;9.40;;;;;;;14.65;32.73;100860.53;4465347;32;35003;-73
2022/03/26 09:14:50;;;;;;;18.02;9.07;;;;;;;14.49;33.02;100852.56;4453573;32;34088;-73
2022/03/26 09:17:36;;;;;;;15.63;8.15;;;;;;;15.18;32.69;100841.41;4465883;32;34178;-72
2022/03/26 09:20:23;;;;;;;23.17;9.18;;;;;;;15.23;32.36;100843.22;4453709;32;35420;-73
2022/03/26 09:23:09;;;;;;;14.45;7.82;;;;;;;15.06;32.75;100844.72;4450960;32;34929;-73
2022/03/26 09:25:56;;;;;;;13.02;7.32;;;;;;;15.64;31.74;100843.03;4464620;32;34678;-73
2022/03/26 09:28:42;;;;;;;15.50;7.32;;;;;;;15.92;31.27;100837.34;4463349;32;34855;-72
2022/03/26 09:31:28;;;;;;;16.33;7.80;;;;;;;16.36;30.83;100830.88;4450743;32;34522;-72
2022/03/26 09:34:15;;;;;;;14.90;7.97;;;;;;;15.99;31.23;100837.69;4451527;32;34580;-72
2022/03/26 09:37:02;;;;;;;16.05;8.18;;;;;;;15.96;30.92;100827.28;4452779;32;35447;-72
2022/03/26 09:39:48;;;;;;;16.75;7.65;;;;;;;15.94;31.53;100827.63;4464782;32;33799;-72
2022/03/26 09:42:36;;;;;;;18.17;7.45;;;;;;;16.91;29.93;100818.47;4452491;32;34155;-73
2022/03/26 09:45:22;;;;;;;13.95;7.00;;;;;;;16.67;29.42;100818.06;4453049;32;34640;-72
2022/03/26 09:48:08;;;;;;;20.80;8.40;;;;;;;16.35;29.85;100822.88;4452511;32;34915;-72
2022/03/26 09:50:56;;;;;;;16.58;7.12;;;;;;;16.20;30.33;100832.44;4452552;32;34966;-72
2022/03/26 09:53:43;;;;;;;16.85;8.02;;;;;;;16.89;29.52;100842.88;4463756;32;34502;-73
2022/03/26 09:56:30;;;;;;;12.57;7.12;;;;;;;16.68;28.77;100805.84;4452885;32;34771;-73
2022/03/26 09:59:21;;;;;;;17.55;7.35;;;;;;;16.69;28.76;100821.34;4464848;32;34538;-73
2022/03/26 10:02:07;;;;;;;11.43;6.20;;;;;;;16.59;28.55;100828.81;4464257;32;34890;-72
2022/03/26 10:04:54;;;;;;;13.35;6.62;;;;;;;16.71;27.39;100825.41;4461521;32;34765;-73
2022/03/26 10:07:41;;;;;;;12.85;7.05;;;;;;;17.01;27.26;100828.38;4460691;32;35182;-72
2022/03/26 10:10:27;;;;;;;10.73;5.78;;;;;;;16.87;27.75;100825.78;4463540;32;34200;-72
2022/03/26 10:13:37;;;;;;;11.10;7.35;;;;;;;17.36;26.64;100820.06;4464375;32;34989;-72
2022/03/26 10:16:24;;;;;;;13.85;5.95;;;;;;;16.84;27.26;100823.66;4464023;32;34754;-72
2022/03/26 10:19:10;;;;;;;10.80;5.37;;;;;;;17.09;26.77;100820.09;4452392;32;35713;-72
2022/03/26 10:21:56;;;;;;;14.68;6.68;;;;;;;17.65;23.94;100813.84;4450950;32;34654;-72
2022/03/26 10:24:43;;;;;;;12.85;6.35;;;;;;;17.29;23.78;100817.78;4451140;32;34860;-72
2022/03/26 10:27:38;;;;;;;14.15;6.00;;;;;;;17.08;25.38;100810.16;4450391;32;34267;-72
2022/03/26 10:33:37;;;;;;;14.98;6.20;;;;;;;17.47;24.68;100805.53;4462270;32;34235;-72
2022/03/26 10:36:23;;;;;;;12.02;6.47;;;;;;;17.23;22.95;100808.03;4452241;32;35543;-73
2022/03/26 10:39:24;;;;;;;12.43;6.47;;;;;;;17.60;23.65;100808.47;4452784;32;34444;-73
2022/03/26 10:42:12;;;;;;;11.52;6.68;;;;;;;17.43;24.86;100801.81;4464643;32;34658;-72
2022/03/26 10:44:59;;;;;;;15.15;7.68;;;;;;;17.55;25.17;100801.12;4463448;32;34806;-72
2022/03/26 10:47:48;;;;;;;12.35;6.25;;;;;;;17.63;24.69;100799.47;4464656;32;33887;-72
2022/03/26 10:50:35;;;;;;;13.60;7.82;;;;;;;18.43;24.13;100789.34;4462407;32;35282;-72
2022/03/26 10:53:21;;;;;;;14.57;7.43;;;;;;;17.86;25.07;100794.53;4452230;32;36008;-72
2022/03/26 10:56:10;;;;;;;14.90;6.93;;;;;;;18.27;23.50;100790.25;4452576;32;34562;-72
2022/03/26 10:58:56;;;;;;;15.35;7.07;;;;;;;17.51;24.38;100795.44;4463695;32;34274;-72
2022/03/26 11:01:43;;;;;;;14.60;7.65;;;;;;;17.53;24.65;100782.06;4450760;32;34395;-72
2022/03/26 11:04:30;;;;;;;14.07;6.65;;;;;;;18.36;23.36;100783.53;4463186;32;34566;-72
2022/03/26 11:07:16;;;;;;;15.60;7.78;;;;;;;18.41;23.63;100779.72;4451916;32;34565;-72
2022/03/26 11:10:08;;;;;;;10.73;6.68;;;;;;;18.70;23.61;100776.13;4452384;32;33845;-73
2022/03/26 11:12:56;;;;;;;13.62;6.85;;;;;;;17.90;23.95;100776.94;4451689;32;35204;-72
2022/03/26 11:15:46;;;;;;;14.45;8.02;;;;;;;18.57;23.03;100771.66;4450124;32;34831;-72
2022/03/26 11:19:04;;;;;;;12.77;6.85;;;;;;;18.37;23.60;100773.25;4462944;32;34750;-73
2022/03/26 11:22:19;;;;;;;16.08;7.60;;;;;;;18.57;22.90;100771.66;4451731;32;34131;-73
2022/03/26 11:25:18;;;;;;;13.27;8.13;;;;;;;19.23;21.48;100762.63;4463343;32;35542;-72
2022/03/26 11:28:27;;;;;;;16.08;8.30;;;;;;;18.69;21.94;100757.81;4450011;32;34865;-73
2022/03/26 11:31:46;;;;;;;14.15;7.80;;;;;;;18.05;22.51;100756.13;4462503;32;35155;-74
2022/03/26 11:34:36;;;;;;;15.25;8.70;;;;;;;18.47;22.57;100749.81;4449048;32;35047;-74
2022/03/26 11:37:23;;;;;;;15.82;9.75;;;;;;;18.34;21.86;100735.06;4448657;32;33441;-73
2022/03/26 11:40:10;;;;;;;17.77;9.88;;;;;;;19.02;21.35;100729.34;4464615;32;35041;-74
2022/03/26 11:42:57;;;;;;;18.15;9.45;;;;;;;18.38;22.20;100722.16;4465211;32;34328;-75
2022/03/26 11:52:12;;;;;;;19.58;10.50;;;;;;;18.19;22.51;100717.06;4455108;32;34822;-74
2022/03/26 11:55:24;;;;;;;21.83;10.93;;;;;;;17.66;22.27;100724.00;4465387;32;34675;-74
2022/03/26 11:58:22;;;;;;;19.92;11.02;;;;;;;17.49;22.38;100720.12;4465046;32;34194;-74
2022/03/26 12:01:15;;;;;;;19.92;10.20;;;;;;;17.55;22.66;100709.69;4465045;32;35589;-74
2022/03/26 12:04:12;;;;;;;19.92;11.48;;;;;;;18.06;21.96;100705.06;4452417;32;35034;-75
2022/03/26 12:06:59;;;;;;;20.00;11.50;;;;;;;18.70;21.18;100692.00;4452723;32;35440;-76
2022/03/26 12:09:45;;;;;;;21.67;11.90;;;;;;;18.73;21.26;100703.28;4452839;32;34248;-76
2022/03/26 12:12:52;;;;;;;20.52;11.30;;;;;;;19.24;21.67;100694.78;4441850;32;35214;-76
2022/03/26 12:15:39;;;;;;;19.15;10.70;;;;;;;18.96;20.76;100689.03;4452755;32;35025;-76
2022/03/26 12:18:34;;;;;;;20.90;11.60;;;;;;;19.30;20.53;100693.41;4453207;32;34611;-76
2022/03/26 12:21:27;;;;;;;21.95;11.88;;;;;;;19.41;20.10;100682.66;4454710;32;33277;-76
2022/03/26 12:24:17;;;;;;;21.48;11.25;;;;;;;20.06;19.57;100675.25;4464695;32;35535;-76
2022/03/26 12:27:05;;;;;;;18.80;9.48;;;;;;;19.96;19.47;100678.53;4465471;32;36011;-76
2022/03/26 12:29:56;;;;;;;20.80;10.70;;;;;;;19.96;19.11;100670.19;4443225;32;34566;-75
2022/03/26 12:32:42;;;;;;;21.23;10.77;;;;;;;19.30;19.60;100676.75;4452790;32;33939;-76
2022/03/26 12:35:29;;;;;;;16.62;10.43;;;;;;;19.53;19.49;100671.56;4465484;32;34743;-76
2022/03/26 12:38:16;;;;;;;18.15;11.02;;;;;;;19.50;18.49;100663.91;4452199;32;35648;-75
2022/03/26 12:41:04;;;;;;;15.38;9.40;;;;;;;19.83;17.53;100655.47;4442390;32;35458;-75
2022/03/26 12:43:59;;;;;;;17.42;8.95;;;;;;;19.87;17.71;100661.16;4452669;32;34350;-75
2022/03/26 12:46:48;;;;;;;18.20;10.77;;;;;;;18.83;17.28;100652.09;4452101;32;34098;-75
2022/03/26 12:49:36;;;;;;;22.35;11.20;;;;;;;19.58;17.64;100654.66;4451146;32;34494;-75
2022/03/26 12:52:25;;;;;;;14.70;8.82;;;;;;;20.18;16.98;100653.00;4444633;32;34310;-75
2022/03/26 12:55:12;;;;;;;15.23;9.27;;;;;;;19.83;17.29;100649.09;4464973;32;33917;-76
2022/03/26 13:01:10;;;;;;;17.35;9.77;;;;;;;19.03;17.77;100651.22;4453191;32;36016;-75
2022/03/26 13:03:56;;;;;;;16.23;9.23;;;;;;;18.26;18.11;100641.63;4439734;32;34645;-75
2022/03/26 13:06:42;;;;;;;16.25;9.82;;;;;;;18.80;17.29;100652.75;4452698;32;33843;-75